sensor_id;sensor_type;location;lat;lon;timestamp;pressure;altitude;pressure_sealevel;temperature;humidity
17764;BME280;22245;52.832;13.816;2023-02-28T00:01:02;103028.44;;;-0.26;74.59
17764;BME280;22245;52.832;13.816;2023-02-28T00:04:25;103028.47;;;-0.32;73.97
17764;BME280;22245;52.832;13.816;2023-02-28T00:07:48;103024.09;;;-0.33;74.45
17764;BME280;22245;52.832;13.816;2023-02-28T00:11:13;103029.34;;;-0.38;73.92
17764;BME280;22245;52.832;13.816;2023-02-28T00:14:35;103031.09;;;-0.40;74.38
17764;BME280;22245;52.832;13.816;2023-02-28T00:17:57;103029.34;;;-0.41;74.29
17764;BME280;22245;52.832;13.816;2023-02-28T00:21:20;103027.59;;;-0.44;73.92
17764;BME280;22245;52.832;13.816;2023-02-28T00:24:42;103038.09;;;-0.45;74.15
17764;BME280;22245;52.832;13.816;2023-02-28T00:28:04;103024.13;;;-0.46;74.85
17764;BME280;22245;52.832;13.816;2023-02-28T00:31:25;103025.84;;;-0.45;73.99
17764;BME280;22245;52.832;13.816;2023-02-28T00:34:47;103028.50;;;-0.46;73.89
17764;BME280;22245;52.832;13.816;2023-02-28T00:38:10;103034.63;;;-0.50;73.87
17764;BME280;22245;52.832;13.816;2023-02-28T00:41:32;103023.25;;;-0.51;73.85
17764;BME280;22245;52.832;13.816;2023-02-28T00:44:54;103026.75;;;-0.55;73.40
17764;BME280;22245;52.832;13.816;2023-02-28T00:48:16;103032.00;;;-0.56;73.57
17764;BME280;22245;52.832;13.816;2023-02-28T00:51:38;103031.13;;;-0.65;73.71
17764;BME280;22245;52.832;13.816;2023-02-28T00:55:02;103038.97;;;-0.71;74.29
17764;BME280;22245;52.832;13.816;2023-02-28T00:58:24;103040.72;;;-0.78;74.23
17764;BME280;22245;52.832;13.816;2023-02-28T01:01:46;103034.63;;;-0.84;74.80
17764;BME280;22245;52.832;13.816;2023-02-28T01:05:08;103045.09;;;-0.86;75.06
17764;BME280;22245;52.832;13.816;2023-02-28T01:08:30;103039.00;;;-0.86;74.86
17764;BME280;22245;52.832;13.816;2023-02-28T01:11:53;103041.59;;;-0.88;74.59
17764;BME280;22245;52.832;13.816;2023-02-28T01:15:15;103040.72;;;-0.90;74.29
17764;BME280;22245;52.832;13.816;2023-02-28T01:18:38;103042.47;;;-0.95;74.65
17764;BME280;22245;52.832;13.816;2023-02-28T01:22:01;103042.47;;;-1.02;74.61
17764;BME280;22245;52.832;13.816;2023-02-28T01:25:23;103044.22;;;-1.07;74.77
17764;BME280;22245;52.832;13.816;2023-02-28T01:28:47;103031.13;;;-1.14;74.44
17764;BME280;22245;52.832;13.816;2023-02-28T01:32:09;103030.25;;;-1.21;74.63
17764;BME280;22245;52.832;13.816;2023-02-28T01:35:32;103036.34;;;-1.24;75.12
17764;BME280;22245;52.832;13.816;2023-02-28T01:38:54;103036.34;;;-1.24;75.16
17764;BME280;22245;52.832;13.816;2023-02-28T01:42:16;103031.97;;;-1.26;74.56
17764;BME280;22245;52.832;13.816;2023-02-28T01:45:40;103030.25;;;-1.31;74.84
17764;BME280;22245;52.832;13.816;2023-02-28T01:49:06;103026.72;;;-1.34;74.93
17764;BME280;22245;52.832;13.816;2023-02-28T01:52:28;103022.38;;;-1.37;74.90
17764;BME280;22245;52.832;13.816;2023-02-28T01:55:52;103024.13;;;-1.42;74.97
17764;BME280;22245;52.832;13.816;2023-02-28T01:59:22;103017.13;;;-1.48;75.61
17764;BME280;22245;52.832;13.816;2023-02-28T02:02:51;103022.34;;;-1.54;75.56
17764;BME280;22245;52.832;13.816;2023-02-28T02:06:15;103028.44;;;-1.55;75.63
17764;BME280;22245;52.832;13.816;2023-02-28T02:09:36;103019.72;;;-1.58;75.66
17764;BME280;22245;52.832;13.816;2023-02-28T02:13:10;103019.72;;;-1.60;75.98
17764;BME280;22245;52.832;13.816;2023-02-28T02:16:46;103023.19;;;-1.63;76.37
17764;BME280;22245;52.832;13.816;2023-02-28T02:28:46;103025.81;;;-1.64;75.85
17764;BME280;22245;52.832;13.816;2023-02-28T02:36:18;103017.09;;;-1.69;75.82
17764;BME280;22245;52.832;13.816;2023-02-28T02:39:48;103024.94;;;-1.68;75.79
17764;BME280;22245;52.832;13.816;2023-02-28T02:43:16;103024.94;;;-1.68;75.50
17764;BME280;22245;52.832;13.816;2023-02-28T02:46:42;103027.53;;;-1.71;75.49
17764;BME280;22245;52.832;13.816;2023-02-28T02:50:08;103027.50;;;-1.76;75.26
17764;BME280;22245;52.832;13.816;2023-02-28T02:53:37;103034.47;;;-1.79;74.75
17764;BME280;22245;52.832;13.816;2023-02-28T02:57:04;103033.59;;;-1.84;75.04
17764;BME280;22245;52.832;13.816;2023-02-28T03:00:31;103032.66;;;-1.90;75.17
17764;BME280;22245;52.832;13.816;2023-02-28T03:03:57;103029.19;;;-1.93;75.46
17764;BME280;22245;52.832;13.816;2023-02-28T03:07:19;103024.81;;;-1.97;75.93
17764;BME280;22245;52.832;13.816;2023-02-28T03:10:44;103031.75;;;-2.01;75.71
17764;BME280;22245;52.832;13.816;2023-02-28T03:14:30;103035.22;;;-2.05;76.10
17764;BME280;22245;52.832;13.816;2023-02-28T03:18:01;103032.59;;;-2.08;75.84
17764;BME280;22245;52.832;13.816;2023-02-28T03:21:30;103029.09;;;-2.12;75.32
17764;BME280;22245;52.832;13.816;2023-02-28T03:24:58;103034.31;;;-2.16;75.72
17764;BME280;22245;52.832;13.816;2023-02-28T03:28:32;103034.28;;;-2.20;75.74
17764;BME280;22245;52.832;13.816;2023-02-28T03:32:03;103037.75;;;-2.22;75.35
17764;BME280;22245;52.832;13.816;2023-02-28T03:35:30;103033.41;;;-2.25;75.73
17764;BME280;22245;52.832;13.816;2023-02-28T03:38:56;103036.00;;;-2.26;75.75
17764;BME280;22245;52.832;13.816;2023-02-28T03:42:25;103047.25;;;-2.32;75.71
17764;BME280;22245;52.832;13.816;2023-02-28T03:45:50;103047.25;;;-2.35;75.12
17764;BME280;22245;52.832;13.816;2023-02-28T03:49:16;103050.72;;;-2.33;75.15
17764;BME280;22245;52.832;13.816;2023-02-28T03:52:43;103044.66;;;-2.32;75.37
17764;BME280;22245;52.832;13.816;2023-02-28T03:56:09;103043.75;;;-2.34;75.08
17764;BME280;22245;52.832;13.816;2023-02-28T03:59:36;103052.47;;;-2.37;75.59
17764;BME280;22245;52.832;13.816;2023-02-28T04:03:00;103058.53;;;-2.39;74.84
17764;BME280;22245;52.832;13.816;2023-02-28T04:06:23;103052.44;;;-2.38;74.74
17764;BME280;22245;52.832;13.816;2023-02-28T04:09:45;103048.09;;;-2.41;74.78
17764;BME280;22245;52.832;13.816;2023-02-28T04:13:06;103056.78;;;-2.40;74.90
17764;BME280;22245;52.832;13.816;2023-02-28T04:16:28;103053.28;;;-2.45;74.34
17764;BME280;22245;52.832;13.816;2023-02-28T04:19:56;103058.47;;;-2.47;75.08
17764;BME280;22245;52.832;13.816;2023-02-28T04:23:18;103051.53;;;-2.47;75.04
17764;BME280;22245;52.832;13.816;2023-02-28T04:26:41;103062.00;;;-2.45;74.87
17764;BME280;22245;52.832;13.816;2023-02-28T04:30:05;103060.19;;;-2.49;73.59
17764;BME280;22245;52.832;13.816;2023-02-28T04:33:27;103052.38;;;-2.51;74.67
17764;BME280;22245;52.832;13.816;2023-02-28T04:36:53;103054.09;;;-2.53;73.84
17764;BME280;22245;52.832;13.816;2023-02-28T04:40:32;103057.56;;;-2.54;74.69
17764;BME280;22245;52.832;13.816;2023-02-28T04:43:53;103057.56;;;-2.52;73.92
17764;BME280;22245;52.832;13.816;2023-02-28T04:47:16;103053.22;;;-2.53;74.48
17764;BME280;22245;52.832;13.816;2023-02-28T04:50:37;103061.03;;;-2.53;73.71
17764;BME280;22245;52.832;13.816;2023-02-28T04:54:01;103055.81;;;-2.58;74.41
17764;BME280;22245;52.832;13.816;2023-02-28T04:57:22;103061.88;;;-2.62;74.31
17764;BME280;22245;52.832;13.816;2023-02-28T05:00:44;103066.22;;;-2.61;74.51
17764;BME280;22245;52.832;13.816;2023-02-28T05:04:06;103066.19;;;-2.64;74.12
17764;BME280;22245;52.832;13.816;2023-02-28T05:07:28;103075.75;;;-2.65;74.26
17764;BME280;22245;52.832;13.816;2023-02-28T05:10:52;103079.25;;;-2.63;74.11
17764;BME280;22245;52.832;13.816;2023-02-28T05:14:13;103078.31;;;-2.66;74.27
17764;BME280;22245;52.832;13.816;2023-02-28T05:17:35;103081.78;;;-2.70;73.46
17764;BME280;22245;52.832;13.816;2023-02-28T05:20:57;103075.66;;;-2.77;73.88
17764;BME280;22245;52.832;13.816;2023-02-28T05:24:19;103086.13;;;-2.74;74.14
17764;BME280;22245;52.832;13.816;2023-02-28T05:27:44;103086.13;;;-2.74;74.08
17764;BME280;22245;52.832;13.816;2023-02-28T05:31:07;103089.59;;;-2.75;73.41
17764;BME280;22245;52.832;13.816;2023-02-28T05:34:30;103088.69;;;-2.76;74.14
17764;BME280;22245;52.832;13.816;2023-02-28T05:37:52;103088.69;;;-2.76;73.41
17764;BME280;22245;52.832;13.816;2023-02-28T05:41:15;103086.97;;;-2.75;73.62
17764;BME280;22245;52.832;13.816;2023-02-28T05:44:38;103084.38;;;-2.75;73.00
17764;BME280;22245;52.832;13.816;2023-02-28T05:48:00;103095.66;;;-2.74;73.55
17764;BME280;22245;52.832;13.816;2023-02-28T05:51:22;103096.53;;;-2.76;72.21
17764;BME280;22245;52.832;13.816;2023-02-28T05:54:43;103097.41;;;-2.75;73.35
17764;BME280;22245;52.832;13.816;2023-02-28T05:58:05;103093.06;;;-2.76;72.39
17764;BME280;22245;52.832;13.816;2023-02-28T06:01:33;103102.59;;;-2.77;72.93
17764;BME280;22245;52.832;13.816;2023-02-28T06:04:55;103102.56;;;-2.80;73.09
17764;BME280;22245;52.832;13.816;2023-02-28T06:08:17;103112.13;;;-2.82;72.44
17764;BME280;22245;52.832;13.816;2023-02-28T06:11:39;103108.59;;;-2.85;72.92
17764;BME280;22245;52.832;13.816;2023-02-28T06:15:03;103105.97;;;-2.90;73.56
17764;BME280;22245;52.832;13.816;2023-02-28T06:18:26;103107.66;;;-2.94;73.87
17764;BME280;22245;52.832;13.816;2023-02-28T06:21:49;103109.38;;;-2.97;73.70
17764;BME280;22245;52.832;13.816;2023-02-28T06:25:11;103116.31;;;-2.99;73.50
17764;BME280;22245;52.832;13.816;2023-02-28T06:28:33;103121.50;;;-3.02;72.78
17764;BME280;22245;52.832;13.816;2023-02-28T06:31:55;103127.56;;;-3.02;73.32
17764;BME280;22245;52.832;13.816;2023-02-28T06:35:18;103131.97;;;-2.99;74.26
17764;BME280;22245;52.832;13.816;2023-02-28T06:38:40;103130.25;;;-2.94;74.06
17764;BME280;22245;52.832;13.816;2023-02-28T06:42:02;103128.56;;;-2.89;74.44
17764;BME280;22245;52.832;13.816;2023-02-28T06:45:24;103130.34;;;-2.85;73.57
17764;BME280;22245;52.832;13.816;2023-02-28T06:48:46;103134.72;;;-2.82;74.50
17764;BME280;22245;52.832;13.816;2023-02-28T06:52:10;103132.19;;;-2.74;73.59
17764;BME280;22245;52.832;13.816;2023-02-28T06:55:31;103131.38;;;-2.69;73.82
17764;BME280;22245;52.832;13.816;2023-02-28T06:58:53;103134.00;;;-2.66;74.01
17764;BME280;22245;52.832;13.816;2023-02-28T07:02:16;103144.50;;;-2.61;74.57
17764;BME280;22245;52.832;13.816;2023-02-28T07:05:39;103138.44;;;-2.57;73.63
17764;BME280;22245;52.832;13.816;2023-02-28T07:09:03;103137.59;;;-2.51;74.09
17764;BME280;22245;52.832;13.816;2023-02-28T07:12:25;103140.28;;;-2.45;74.12
17764;BME280;22245;52.832;13.816;2023-02-28T07:15:53;103143.78;;;-2.40;73.85
17764;BME280;22245;52.832;13.816;2023-02-28T07:19:15;103155.03;;;-2.45;75.42
17764;BME280;22245;52.832;13.816;2023-02-28T07:22:37;103142.88;;;-2.47;75.19
17764;BME280;22245;52.832;13.816;2023-02-28T07:26:01;103151.63;;;-2.40;75.49
17764;BME280;22245;52.832;13.816;2023-02-28T07:29:23;103141.22;;;-2.34;75.64
17764;BME280;22245;52.832;13.816;2023-02-28T07:32:45;103150.81;;;-2.28;76.16
17764;BME280;22245;52.832;13.816;2023-02-28T07:36:09;103142.19;;;-2.21;75.87
17764;BME280;22245;52.832;13.816;2023-02-28T07:39:33;103145.72;;;-2.12;76.62
17764;BME280;22245;52.832;13.816;2023-02-28T07:42:58;103139.69;;;-2.05;76.44
17764;BME280;22245;52.832;13.816;2023-02-28T07:46:20;103151.91;;;-1.95;76.93
17764;BME280;22245;52.832;13.816;2023-02-28T07:49:42;103149.38;;;-1.87;77.37
17764;BME280;22245;52.832;13.816;2023-02-28T07:53:04;103145.94;;;-1.78;77.24
17764;BME280;22245;52.832;13.816;2023-02-28T07:56:26;103148.59;;;-1.70;77.28
17764;BME280;22245;52.832;13.816;2023-02-28T07:59:50;103139.03;;;-1.61;77.19
17764;BME280;22245;52.832;13.816;2023-02-28T08:03:12;103147.78;;;-1.52;77.67
17764;BME280;22245;52.832;13.816;2023-02-28T08:06:34;103150.47;;;-1.40;77.93
17764;BME280;22245;52.832;13.816;2023-02-28T08:09:55;103144.41;;;-1.29;77.99
17764;BME280;22245;52.832;13.816;2023-02-28T08:13:17;103140.97;;;-1.18;78.19
17764;BME280;22245;52.832;13.816;2023-02-28T08:16:41;103147.97;;;-1.07;77.85
17764;BME280;22245;52.832;13.816;2023-02-28T08:20:03;103142.75;;;-0.95;78.47
17764;BME280;22245;52.832;13.816;2023-02-28T08:23:25;103140.16;;;-0.84;78.33
17764;BME280;22245;52.832;13.816;2023-02-28T08:26:47;103144.56;;;-0.70;78.98
17764;BME280;22245;52.832;13.816;2023-02-28T08:30:11;103150.63;;;-0.61;78.33
17764;BME280;22245;52.832;13.816;2023-02-28T08:33:34;103141.94;;;-0.49;78.50
17764;BME280;22245;52.832;13.816;2023-02-28T08:36:56;103146.28;;;-0.38;78.25
17764;BME280;22245;52.832;13.816;2023-02-28T08:40:20;103148.03;;;-0.30;78.63
17764;BME280;22245;52.832;13.816;2023-02-28T08:43:41;103142.81;;;-0.17;78.23
17764;BME280;22245;52.832;13.816;2023-02-28T08:47:03;103143.63;;;-0.04;78.13
17764;BME280;22245;52.832;13.816;2023-02-28T08:50:27;103140.13;;;0.06;77.80
17764;BME280;22245;52.832;13.816;2023-02-28T08:53:49;103149.69;;;0.18;77.81
17764;BME280;22245;52.832;13.816;2023-02-28T08:57:10;103146.19;;;0.32;76.82
17764;BME280;22245;52.832;13.816;2023-02-28T09:00:33;103144.41;;;0.41;77.04
17764;BME280;22245;52.832;13.816;2023-02-28T09:03:55;103146.97;;;0.51;76.55
17764;BME280;22245;52.832;13.816;2023-02-28T09:07:19;103144.31;;;0.55;76.36
17764;BME280;22245;52.832;13.816;2023-02-28T09:10:41;103142.53;;;0.67;76.37
17764;BME280;22245;52.832;13.816;2023-02-28T09:14:03;103140.72;;;0.78;75.86
17764;BME280;22245;52.832;13.816;2023-02-28T09:17:24;103145.94;;;0.89;74.82
17764;BME280;22245;52.832;13.816;2023-02-28T09:20:50;103143.22;;;1.03;73.18
17764;BME280;22245;52.832;13.816;2023-02-28T09:24:13;103144.00;;;1.13;72.93
17764;BME280;22245;52.832;13.816;2023-02-28T09:27:35;103140.47;;;1.23;72.08
17764;BME280;22245;52.832;13.816;2023-02-28T09:30:58;103147.38;;;1.34;69.81
17764;BME280;22245;52.832;13.816;2023-02-28T09:34:20;103137.69;;;1.42;68.44
17764;BME280;22245;52.832;13.816;2023-02-28T09:37:42;103142.00;;;1.51;68.35
17764;BME280;22245;52.832;13.816;2023-02-28T09:41:13;103148.09;;;1.57;66.67
17764;BME280;22245;52.832;13.816;2023-02-28T09:44:38;103139.25;;;1.65;63.33
17764;BME280;22245;52.832;13.816;2023-02-28T09:48:06;103148.81;;;1.73;61.92
17764;BME280;22245;52.832;13.816;2023-02-28T09:51:36;103133.84;;;1.80;60.35
17764;BME280;22245;52.832;13.816;2023-02-28T09:55:16;103141.63;;;1.91;60.62
17764;BME280;22245;52.832;13.816;2023-02-28T09:58:45;103138.03;;;2.00;58.17
17764;BME280;22245;52.832;13.816;2023-02-28T10:02:39;103140.56;;;2.09;57.65
17764;BME280;22245;52.832;13.816;2023-02-28T10:06:08;103141.34;;;2.17;57.50
17764;BME280;22245;52.832;13.816;2023-02-28T10:09:33;103157.00;;;2.27;57.84
17764;BME280;22245;52.832;13.816;2023-02-28T10:13:00;103150.81;;;2.34;56.65
17764;BME280;22245;52.832;13.816;2023-02-28T10:16:29;103152.50;;;2.41;56.85
17764;BME280;22245;52.832;13.816;2023-02-28T10:19:59;103153.25;;;2.51;55.14
17764;BME280;22245;52.832;13.816;2023-02-28T10:23:31;103159.25;;;2.61;53.64
17764;BME280;22245;52.832;13.816;2023-02-28T10:26:58;103154.78;;;2.69;54.95
17764;BME280;22245;52.832;13.816;2023-02-28T10:30:21;103156.44;;;2.75;53.96
17764;BME280;22245;52.832;13.816;2023-02-28T10:33:44;103150.19;;;2.84;51.33
17764;BME280;22245;52.832;13.816;2023-02-28T10:37:06;103146.56;;;2.91;52.29
17764;BME280;22245;52.832;13.816;2023-02-28T10:40:32;103142.97;;;2.98;50.36
17764;BME280;22245;52.832;13.816;2023-02-28T10:44:14;103132.31;;;3.08;49.33
17764;BME280;22245;52.832;13.816;2023-02-28T10:47:41;103118.25;;;3.09;49.36
17764;BME280;22245;52.832;13.816;2023-02-28T10:51:14;103106.75;;;3.14;49.16
17764;BME280;22245;52.832;13.816;2023-02-28T10:54:37;103105.72;;;3.23;50.37
17764;BME280;22245;52.832;13.816;2023-02-28T10:57:59;103102.09;;;3.30;49.31
17764;BME280;22245;52.832;13.816;2023-02-28T11:01:23;103106.38;;;3.38;48.79
17764;BME280;22245;52.832;13.816;2023-02-28T11:04:45;103101.00;;;3.44;48.40
17764;BME280;22245;52.832;13.816;2023-02-28T11:08:14;103100.13;;;3.45;48.75
17764;BME280;22245;52.832;13.816;2023-02-28T11:11:43;103097.34;;;3.53;49.47
17764;BME280;22245;52.832;13.816;2023-02-28T11:15:21;103101.63;;;3.58;47.89
17764;BME280;22245;52.832;13.816;2023-02-28T11:18:47;103102.50;;;3.59;47.89
17764;BME280;22245;52.832;13.816;2023-02-28T11:22:09;103110.28;;;3.67;48.47
17764;BME280;22245;52.832;13.816;2023-02-28T11:25:35;103111.03;;;3.73;48.39
17764;BME280;22245;52.832;13.816;2023-02-28T11:29:09;103109.13;;;3.82;48.94
17764;BME280;22245;52.832;13.816;2023-02-28T11:32:31;103107.19;;;3.90;47.92
17764;BME280;22245;52.832;13.816;2023-02-28T11:35:57;103103.59;;;3.94;47.06
17764;BME280;22245;52.832;13.816;2023-02-28T11:39:20;103109.66;;;4.01;48.27
17764;BME280;22245;52.832;13.816;2023-02-28T11:42:50;103106.16;;;3.99;47.23
17764;BME280;22245;52.832;13.816;2023-02-28T11:46:20;103104.25;;;4.07;47.53
17764;BME280;22245;52.832;13.816;2023-02-28T11:49:54;103099.72;;;4.14;47.43
17764;BME280;22245;52.832;13.816;2023-02-28T11:53:24;103091.72;;;4.18;47.17
17764;BME280;22245;52.832;13.816;2023-02-28T11:56:50;103088.97;;;4.25;47.76
17764;BME280;22245;52.832;13.816;2023-02-28T12:00:29;103084.47;;;4.30;47.08
17764;BME280;22245;52.832;13.816;2023-02-28T12:04:01;103079.94;;;4.35;47.06
17764;BME280;22245;52.832;13.816;2023-02-28T12:07:31;103078.06;;;4.40;47.01
17764;BME280;22245;52.832;13.816;2023-02-28T12:11:05;103069.13;;;4.47;47.84
17764;BME280;22245;52.832;13.816;2023-02-28T12:14:47;103059.31;;;4.53;47.00
17764;BME280;22245;52.832;13.816;2023-02-28T12:18:23;103057.47;;;4.58;46.46
17764;BME280;22245;52.832;13.816;2023-02-28T12:22:03;103052.97;;;4.61;46.20
17764;BME280;22245;52.832;13.816;2023-02-28T12:25:49;103045.00;;;4.64;45.92
17764;BME280;22245;52.832;13.816;2023-02-28T12:29:17;103043.16;;;4.68;45.95
17764;BME280;22245;52.832;13.816;2023-02-28T12:32:42;103028.97;;;4.72;46.36
17764;BME280;22245;52.832;13.816;2023-02-28T12:36:11;103013.06;;;4.75;46.92
17764;BME280;22245;52.832;13.816;2023-02-28T12:39:39;103006.78;;;4.81;46.84
17764;BME280;22245;52.832;13.816;2023-02-28T12:43:12;103012.84;;;4.85;45.87
17764;BME280;22245;52.832;13.816;2023-02-28T12:46:38;103006.63;;;4.87;45.96
17764;BME280;22245;52.832;13.816;2023-02-28T12:50:04;103002.19;;;4.88;43.64
17764;BME280;22245;52.832;13.816;2023-02-28T12:53:32;103007.41;;;4.91;44.21
17764;BME280;22245;52.832;13.816;2023-02-28T12:57:06;102997.63;;;4.95;44.25
17764;BME280;22245;52.832;13.816;2023-02-28T13:00:34;103002.00;;;4.97;44.35
17764;BME280;22245;52.832;13.816;2023-02-28T13:04:24;103001.91;;;5.00;44.63
17764;BME280;22245;52.832;13.816;2023-02-28T13:08:03;102993.91;;;5.03;44.36
17764;BME280;22245;52.832;13.816;2023-02-28T13:11:29;102996.56;;;5.02;44.10
17764;BME280;22245;52.832;13.816;2023-02-28T13:15:07;102988.53;;;5.06;44.64
17764;BME280;22245;52.832;13.816;2023-02-28T13:18:36;102996.31;;;5.13;45.06
17764;BME280;22245;52.832;13.816;2023-02-28T13:22:01;102994.41;;;5.18;43.35
17764;BME280;22245;52.832;13.816;2023-02-28T13:25:51;102989.91;;;5.21;41.42
17764;BME280;22245;52.832;13.816;2023-02-28T13:29:27;103000.41;;;5.25;40.69
17764;BME280;22245;52.832;13.816;2023-02-28T13:33:19;102993.22;;;5.30;41.39
17764;BME280;22245;52.832;13.816;2023-02-28T13:36:43;102986.19;;;5.30;41.48
17764;BME280;22245;52.832;13.816;2023-02-28T13:40:31;102983.44;;;5.33;41.17
17764;BME280;22245;52.832;13.816;2023-02-28T13:44:02;102979.00;;;5.35;41.57
17764;BME280;22245;52.832;13.816;2023-02-28T13:47:30;102976.25;;;5.39;42.12
17764;BME280;22245;52.832;13.816;2023-02-28T13:50:53;102977.94;;;5.41;42.34
17764;BME280;22245;52.832;13.816;2023-02-28T13:54:26;102977.84;;;5.44;41.83
17764;BME280;22245;52.832;13.816;2023-02-28T13:57:58;102969.81;;;5.47;42.07
17764;BME280;22245;52.832;13.816;2023-02-28T14:01:44;102965.34;;;5.51;42.34
17764;BME280;22245;52.832;13.816;2023-02-28T14:05:15;102964.34;;;5.55;42.23
17764;BME280;22245;52.832;13.816;2023-02-28T14:08:47;102966.03;;;5.58;42.68
17764;BME280;22245;52.832;13.816;2023-02-28T14:12:55;102953.59;;;5.61;43.08
17764;BME280;22245;52.832;13.816;2023-02-28T14:16:21;102961.41;;;5.66;42.89
17764;BME280;22245;52.832;13.816;2023-02-28T14:19:45;102956.94;;;5.68;42.70
17764;BME280;22245;52.832;13.816;2023-02-28T14:23:19;102953.41;;;5.68;42.41
17764;BME280;22245;52.832;13.816;2023-02-28T14:27:02;102955.06;;;5.72;42.93
17764;BME280;22245;52.832;13.816;2023-02-28T14:30:51;102964.66;;;5.76;43.31
17764;BME280;22245;52.832;13.816;2023-02-28T14:34:24;102954.91;;;5.76;42.70
17764;BME280;22245;52.832;13.816;2023-02-28T14:37:48;102947.81;;;5.78;42.94
17764;BME280;22245;52.832;13.816;2023-02-28T14:41:22;102956.63;;;5.79;42.82
17764;BME280;22245;52.832;13.816;2023-02-28T14:44:53;102949.53;;;5.79;42.76
17764;BME280;22245;52.832;13.816;2023-02-28T14:48:16;102952.97;;;5.83;42.83
17764;BME280;22245;52.832;13.816;2023-02-28T14:51:39;102949.41;;;5.84;42.82
17764;BME280;22245;52.832;13.816;2023-02-28T14:55:03;102951.19;;;5.84;42.43
17764;BME280;22245;52.832;13.816;2023-02-28T14:58:30;102948.53;;;5.84;42.56
17764;BME280;22245;52.832;13.816;2023-02-28T15:02:07;102940.56;;;5.85;43.08
17764;BME280;22245;52.832;13.816;2023-02-28T15:05:30;102946.69;;;5.87;42.83
17764;BME280;22245;52.832;13.816;2023-02-28T15:09:10;102944.00;;;5.89;42.92
17764;BME280;22245;52.832;13.816;2023-02-28T15:12:32;102934.19;;;5.92;42.33
17764;BME280;22245;52.832;13.816;2023-02-28T15:15:57;102941.19;;;5.93;42.74
17764;BME280;22245;52.832;13.816;2023-02-28T15:19:25;102934.16;;;5.94;42.34
17764;BME280;22245;52.832;13.816;2023-02-28T15:22:49;102930.53;;;5.97;42.11
17764;BME280;22245;52.832;13.816;2023-02-28T15:26:14;102934.06;;;5.97;41.78
17764;BME280;22245;52.832;13.816;2023-02-28T15:29:43;102936.59;;;6.00;42.12
17764;BME280;22245;52.832;13.816;2023-02-28T15:33:20;102929.53;;;6.01;41.95
17764;BME280;22245;52.832;13.816;2023-02-28T15:36:42;102930.31;;;6.04;42.24
17764;BME280;22245;52.832;13.816;2023-02-28T15:40:11;102926.72;;;6.07;42.05
17764;BME280;22245;52.832;13.816;2023-02-28T15:43:35;102931.88;;;6.12;41.91
17764;BME280;22245;52.832;13.816;2023-02-28T15:46:59;102925.63;;;6.14;42.03
17764;BME280;22245;52.832;13.816;2023-02-28T15:50:24;102932.59;;;6.17;41.87
17764;BME280;22245;52.832;13.816;2023-02-28T15:53:48;102923.72;;;6.18;41.12
17764;BME280;22245;52.832;13.816;2023-02-28T15:57:14;102925.53;;;6.17;41.60
17764;BME280;22245;52.832;13.816;2023-02-28T16:00:37;102925.47;;;6.19;41.10
17764;BME280;22245;52.832;13.816;2023-02-28T16:04:01;102923.63;;;6.21;41.92
17764;BME280;22245;52.832;13.816;2023-02-28T16:07:26;102921.97;;;6.18;41.98
17764;BME280;22245;52.832;13.816;2023-02-28T16:10:47;102927.34;;;6.15;42.44
17764;BME280;22245;52.832;13.816;2023-02-28T16:14:15;102921.34;;;6.10;42.44
17764;BME280;22245;52.832;13.816;2023-02-28T16:17:38;102919.78;;;6.03;42.29
17764;BME280;22245;52.832;13.816;2023-02-28T16:21:00;102917.34;;;5.95;42.54
17764;BME280;22245;52.832;13.816;2023-02-28T16:24:23;102921.03;;;5.89;43.93
17764;BME280;22245;52.832;13.816;2023-02-28T16:27:47;102915.97;;;5.82;44.76
17764;BME280;22245;52.832;13.816;2023-02-28T16:31:11;102912.81;;;5.70;44.71
17764;BME280;22245;52.832;13.816;2023-02-28T16:34:37;102917.53;;;5.59;44.85
17764;BME280;22245;52.832;13.816;2023-02-28T16:37:58;102919.66;;;5.46;44.82
17764;BME280;22245;52.832;13.816;2023-02-28T16:41:24;102918.28;;;5.32;46.01
17764;BME280;22245;52.832;13.816;2023-02-28T16:44:47;102930.16;;;5.17;45.49
17764;BME280;22245;52.832;13.816;2023-02-28T16:48:12;102938.44;;;5.03;46.17
17764;BME280;22245;52.832;13.816;2023-02-28T16:51:35;102937.88;;;4.90;46.41
17764;BME280;22245;52.832;13.816;2023-02-28T16:54:57;102939.13;;;4.77;47.13
17764;BME280;22245;52.832;13.816;2023-02-28T16:58:21;102942.09;;;4.63;47.86
17764;BME280;22245;52.832;13.816;2023-02-28T17:01:46;102947.63;;;4.52;48.23
17764;BME280;22245;52.832;13.816;2023-02-28T17:05:10;102946.22;;;4.39;48.80
17764;BME280;22245;52.832;13.816;2023-02-28T17:08:32;102949.09;;;4.26;49.83
17764;BME280;22245;52.832;13.816;2023-02-28T17:11:53;102947.66;;;4.13;50.05
17764;BME280;22245;52.832;13.816;2023-02-28T17:15:19;102947.13;;;3.98;50.41
17764;BME280;22245;52.832;13.816;2023-02-28T17:18:41;102944.78;;;3.84;51.06
17764;BME280;22245;52.832;13.816;2023-02-28T17:22:03;102947.69;;;3.70;51.39
17764;BME280;22245;52.832;13.816;2023-02-28T17:25:25;102953.25;;;3.56;51.62
17764;BME280;22245;52.832;13.816;2023-02-28T17:28:47;102951.75;;;3.43;51.90
17764;BME280;22245;52.832;13.816;2023-02-28T17:32:12;102956.34;;;3.31;52.11
17764;BME280;22245;52.832;13.816;2023-02-28T17:35:37;102959.22;;;3.17;53.32
17764;BME280;22245;52.832;13.816;2023-02-28T17:39:01;102969.09;;;3.06;54.36
17764;BME280;22245;52.832;13.816;2023-02-28T17:42:23;102967.47;;;2.97;54.59
17764;BME280;22245;52.832;13.816;2023-02-28T17:45:44;102965.91;;;2.88;54.69
17764;BME280;22245;52.832;13.816;2023-02-28T17:49:08;102961.66;;;2.78;55.31
17764;BME280;22245;52.832;13.816;2023-02-28T17:52:30;102960.03;;;2.71;56.23
17764;BME280;22245;52.832;13.816;2023-02-28T17:55:57;102973.28;;;2.65;56.51
17764;BME280;22245;52.832;13.816;2023-02-28T17:59:18;102978.72;;;2.54;56.41
17764;BME280;22245;52.832;13.816;2023-02-28T18:02:40;102983.28;;;2.42;56.74